Time;durP1;ratioP1;P1;durP2;ratioP2;P2;SDS_P1;SDS_P2;PMS_P1;PMS_P2;Temp;Humidity;BMP_temperature;BMP_pressure;BME280_temperature;BME280_humidity;BME280_pressure;Samples;Min_cycle;Max_cycle;Signal;HPM_P1;HPM_P2
2021/05/10 00:02:08;;;;;;;4.10;2.10;;;409.90;1331.20;;;;;;5093999;28;20189;-66
2021/05/10 00:04:34;;;;;;;6.25;2.10;;;409.90;1331.20;;;;;;5094063;28;20042;-71
2021/05/10 00:07:00;;;;;;;7.78;2.10;;;409.80;1331.20;;;;;;5093882;28;20024;-71
2021/05/10 00:09:26;;;;;;;5.97;2.47;;;409.80;1331.20;;;;;;5093786;28;20012;-67
2021/05/10 00:11:52;;;;;;;4.78;2.50;;;409.80;1356.80;;;;;;5093690;28;20134;-71
2021/05/10 00:14:27;;;;;;;9.55;2.55;;;409.80;1356.80;;;;;;5093779;28;20540;-71
2021/05/10 00:16:53;;;;;;;3.72;2.20;;;409.70;1356.80;;;;;;5092463;28;20116;-70
2021/05/10 00:19:19;;;;;;;5.72;1.80;;;409.70;1356.80;;;;;;5093703;28;20111;-66
2021/05/10 00:21:45;;;;;;;4.15;2.30;;;409.70;1356.80;;;;;;5093738;28;20046;-70
2021/05/10 00:24:11;;;;;;;3.20;1.90;;;409.70;1356.80;;;;;;5093637;28;20520;-65
2021/05/10 00:26:36;;;;;;;6.22;2.20;;;409.70;1356.80;;;;;;5092242;28;20028;-66
2021/05/10 00:29:02;;;;;;;8.35;2.22;;;409.70;1356.80;;;;;;5093638;28;20035;-71
2021/05/10 00:31:28;;;;;;;4.18;1.90;;;409.60;1356.80;;;;;;5093823;28;20506;-70
2021/05/10 00:33:54;;;;;;;6.70;2.20;;;409.60;1356.80;;;;;;5093445;28;20036;-70
2021/05/10 00:36:20;;;;;;;6.78;2.22;;;409.60;1356.80;;;;;;5093753;28;20028;-70
2021/05/10 00:38:46;;;;;;;5.55;1.98;;;409.60;1382.40;;;;;;5093725;28;20024;-66
2021/05/10 00:41:12;;;;;;;8.00;2.10;;;384.90;1356.80;;;;;;5093711;28;20039;-70
2021/05/10 00:43:37;;;;;;;4.28;1.98;;;384.90;1356.80;;;;;;5093420;28;20524;-70
2021/05/10 00:46:03;;;;;;;5.05;1.70;;;384.80;1382.40;;;;;;5093970;28;20035;-70
2021/05/10 00:48:29;;;;;;;4.22;1.88;;;384.80;1356.80;;;;;;5093508;28;20099;-67
2021/05/10 00:50:55;;;;;;;3.53;1.80;;;384.80;1356.80;;;;;;5093687;28;20031;-70
2021/05/10 00:53:21;;;;;;;6.13;2.30;;;384.90;1356.80;;;;;;5093166;28;20039;-69
2021/05/10 00:55:47;;;;;;;8.63;2.40;;;384.90;1356.80;;;;;;5093335;28;20028;-66
2021/05/10 00:58:13;;;;;;;4.25;2.08;;;384.80;1356.80;;;;;;5093327;28;20119;-70
2021/05/10 01:00:39;;;;;;;7.82;2.20;;;384.80;1356.80;;;;;;5094023;28;20028;-67
2021/05/10 01:03:06;;;;;;;5.72;1.65;;;384.80;1382.40;;;;;;5097372;28;20035;-70
2021/05/10 01:05:32;;;;;;;6.38;2.40;;;384.80;1356.80;;;;;;5097561;28;20111;-70
2021/05/10 01:07:58;;;;;;;4.13;2.10;;;384.80;1382.40;;;;;;5097298;28;20168;-70
2021/05/10 01:10:27;;;;;;;7.78;2.55;;;384.80;1382.40;;;;;;5097176;28;20027;-70
2021/05/10 01:12:53;;;;;;;4.93;2.47;;;384.80;1356.80;;;;;;5097705;28;20028;-70
2021/05/10 01:15:25;;;;;;;4.05;2.10;;;384.80;1356.80;;;;;;5097172;28;20031;-65
2021/05/10 01:17:52;;;;;;;4.07;1.80;;;384.80;1382.40;;;;;;5097260;28;20020;-70
2021/05/10 01:20:20;;;;;;;4.18;1.90;;;384.80;1382.40;;;;;;5097105;28;20062;-70
2021/05/10 01:22:57;;;;;;;7.03;1.73;;;384.80;1382.40;;;;;;5095688;28;20028;-65
2021/05/10 01:25:28;;;;;;;7.35;2.47;;;384.80;1382.40;;;;;;5097186;28;20025;-70
2021/05/10 01:27:55;;;;;;;5.47;1.80;;;384.80;1382.40;;;;;;5097199;28;20026;-70
2021/05/10 01:30:34;;;;;;;4.10;1.60;;;384.80;1382.40;;;;;;5096795;28;20020;-70
2021/05/10 01:33:01;;;;;;;5.70;1.73;;;384.80;1382.40;;;;;;5096812;28;20032;-66
2021/05/10 01:35:30;;;;;;;2.78;1.42;;;384.80;1382.40;;;;;;5096816;28;20012;-70
2021/05/10 01:37:57;;;;;;;5.70;1.50;;;384.70;1382.40;;;;;;5096678;28;20380;-71
2021/05/10 01:40:23;;;;;;;4.97;1.67;;;384.80;1382.40;;;;;;5096924;28;20012;-70
2021/05/10 01:42:49;;;;;;;5.82;1.98;;;384.70;1382.40;;;;;;5095283;28;20097;-71
2021/05/10 01:45:15;;;;;;;3.95;1.80;;;384.60;1382.40;;;;;;5096664;28;20020;-70
2021/05/10 01:47:41;;;;;;;4.47;1.92;;;384.50;1408.00;;;;;;5096767;28;20020;-66
2021/05/10 01:50:18;;;;;;;3.30;1.60;;;384.50;1382.40;;;;;;5096499;28;20024;-70
2021/05/10 01:52:45;;;;;;;6.97;1.50;;;384.50;1382.40;;;;;;5096688;28;20040;-65
2021/05/10 01:55:12;;;;;;;8.10;2.22;;;384.50;1408.00;;;;;;5096368;28;20377;-66
2021/05/10 01:57:39;;;;;;;4.43;2.00;;;384.50;1382.40;;;;;;5096494;28;20198;-71
2021/05/10 02:00:10;;;;;;;4.38;2.30;;;384.50;1382.40;;;;;;5096345;28;20030;-71
2021/05/10 02:02:38;;;;;;;5.47;1.67;;;384.60;1382.40;;;;;;5096268;28;20043;-70
2021/05/10 02:05:24;;;;;;;2.63;1.80;;;384.60;1382.40;;;;;;5096483;28;20049;-65
2021/05/10 02:07:53;;;;;;;3.30;1.70;;;384.60;1356.80;;;;;;5096756;28;20124;-70
2021/05/10 02:10:34;;;;;;;4.80;2.08;;;384.60;1356.80;;;;;;5096113;28;20102;-66
2021/05/10 02:13:00;;;;;;;4.07;2.00;;;384.70;1382.40;;;;;;5095460;28;20039;-70
2021/05/10 02:15:28;;;;;;;4.75;1.63;;;384.60;1382.40;;;;;;5096218;28;20017;-71
2021/05/10 02:17:54;;;;;;;5.03;1.90;;;384.60;1382.40;;;;;;5096138;28;20472;-71
2021/05/10 02:20:21;;;;;;;5.13;1.67;;;384.60;1356.80;;;;;;5094689;28;20046;-71
2021/05/10 02:23:02;;;;;;;3.70;1.90;;;384.70;1382.40;;;;;;5095830;28;20031;-65
2021/05/10 02:25:30;;;;;;;4.40;1.65;;;384.70;1382.40;;;;;;5096051;28;20090;-71
2021/05/10 02:27:57;;;;;;;6.82;1.60;;;384.60;1382.40;;;;;;5096340;28;20460;-71
2021/05/10 02:30:25;;;;;;;3.78;1.50;;;384.60;1382.40;;;;;;5096007;28;20099;-71
2021/05/10 02:32:52;;;;;;;8.07;2.10;;;384.50;1382.40;;;;;;5095631;28;20031;-70
2021/05/10 02:35:20;;;;;;;6.15;1.58;;;384.50;1382.40;;;;;;5095664;28;20096;-71
2021/05/10 02:37:47;;;;;;;6.45;1.58;;;384.50;1382.40;;;;;;5096088;28;20020;-71
2021/05/10 02:40:13;;;;;;;3.92;1.92;;;384.50;1382.40;;;;;;5095526;28;20032;-71
2021/05/10 02:42:40;;;;;;;6.10;1.77;;;384.50;1382.40;;;;;;5095467;28;20016;-66
2021/05/10 02:45:08;;;;;;;4.07;1.90;;;384.50;1382.40;;;;;;5095549;28;20083;-68
2021/05/10 02:47:34;;;;;;;5.43;1.85;;;384.50;1408.00;;;;;;5095454;28;20031;-71
2021/05/10 02:50:01;;;;;;;5.20;2.30;;;384.50;1408.00;;;;;;5095343;28;20032;-70
2021/05/10 02:52:27;;;;;;;6.63;2.15;;;384.50;1408.00;;;;;;5095744;28;20105;-66
2021/05/10 02:54:53;;;;;;;10.68;2.38;;;384.50;1408.00;;;;;;5095393;28;20020;-70
2021/05/10 02:57:19;;;;;;;5.82;2.40;;;384.40;1408.00;;;;;;5095180;28;20024;-67
2021/05/10 02:59:45;;;;;;;5.43;2.45;;;384.40;1408.00;;;;;;5095204;28;20465;-70
2021/05/10 03:02:11;;;;;;;6.07;2.25;;;384.40;1408.00;;;;;;5095089;28;20081;-65
2021/05/10 03:04:37;;;;;;;5.95;2.20;;;384.40;1433.60;;;;;;5095562;28;20476;-69
2021/05/10 03:07:03;;;;;;;4.47;2.22;;;384.40;1408.00;;;;;;5095056;28;20048;-70
2021/05/10 03:09:32;;;;;;;8.02;2.20;;;384.40;1408.00;;;;;;5095466;28;20039;-65
2021/05/10 03:11:59;;;;;;;13.00;2.63;;;384.40;1408.00;;;;;;5094646;28;20056;-69
2021/05/10 03:14:25;;;;;;;10.45;2.22;;;384.20;1433.60;;;;;;5094814;28;20107;-70
2021/05/10 03:16:51;;;;;;;5.25;2.22;;;384.30;1433.60;;;;;;5095209;28;20473;-65
2021/05/10 03:19:18;;;;;;;9.50;2.65;;;384.30;1408.00;;;;;;5094828;28;20024;-70
2021/05/10 03:21:45;;;;;;;3.85;1.92;;;384.20;1408.00;;;;;;5094739;28;20073;-70
2021/05/10 03:24:12;;;;;;;4.03;2.03;;;384.20;1433.60;;;;;;5094564;28;20028;-65
2021/05/10 03:26:39;;;;;;;5.07;2.08;;;384.20;1433.60;;;;;;5093257;28;20476;-69
2021/05/10 03:29:07;;;;;;;4.28;1.95;;;384.20;1433.60;;;;;;5094718;28;20501;-69
2021/05/10 03:31:33;;;;;;;4.55;2.22;;;384.20;1433.60;;;;;;5094515;28;20372;-65
2021/05/10 03:33:59;;;;;;;5.47;2.13;;;384.20;1408.00;;;;;;5094437;28;20035;-69
2021/05/10 03:36:26;;;;;;;4.63;1.80;;;384.20;1433.60;;;;;;5094471;28;20027;-70
2021/05/10 03:38:52;;;;;;;2.55;1.70;;;384.00;1433.60;;;;;;5094428;28;20485;-65
2021/05/10 03:41:18;;;;;;;3.65;1.98;;;384.10;1433.60;;;;;;5094472;28;20030;-70
2021/05/10 03:43:44;;;;;;;4.10;1.90;;;384.10;1433.60;;;;;;5094291;28;20136;-70
2021/05/10 03:46:10;;;;;;;6.22;2.10;;;384.10;1433.60;;;;;;5094140;28;20099;-70
2021/05/10 03:48:36;;;;;;;4.75;2.13;;;384.10;1433.60;;;;;;5094140;28;20040;-70
2021/05/10 03:51:02;;;;;;;6.28;2.10;;;384.10;1408.00;;;;;;5092902;28;20038;-66
2021/05/10 03:53:28;;;;;;;5.88;1.80;;;384.10;1433.60;;;;;;5092799;28;20124;-70
2021/05/10 03:55:54;;;;;;;5.63;1.83;;;384.10;1433.60;;;;;;5094130;28;20087;-71
2021/05/10 03:58:20;;;;;;;4.65;2.15;;;384.10;1433.60;;;;;;5094316;28;20476;-66
2021/05/10 04:00:45;;;;;;;3.50;1.58;;;384.20;1433.60;;;;;;5094066;28;20071;-69
2021/05/10 04:03:14;;;;;;;3.38;1.60;;;384.10;1433.60;;;;;;5093911;28;20028;-65
2021/05/10 04:16:15;;;;;;;5.78;1.80;;;384.20;1433.60;;;;;;5093871;28;20059;-71
2021/05/10 04:18:41;;;;;;;8.95;2.20;;;384.20;1459.20;;;;;;5094245;28;20024;-66
2021/05/10 04:21:06;;;;;;;4.40;1.70;;;384.20;1433.60;;;;;;5093689;28;20144;-69
2021/05/10 04:23:32;;;;;;;4.18;1.80;;;384.20;1408.00;;;;;;5093989;28;20110;-72
2021/05/10 04:25:58;;;;;;;4.82;1.80;;;384.20;1433.60;;;;;;5092464;28;20032;-71
2021/05/10 04:28:24;;;;;;;5.88;2.30;;;384.20;1433.60;;;;;;5093831;28;20020;-71
2021/05/10 04:30:52;;;;;;;4.45;2.13;;;384.20;1433.60;;;;;;5093557;28;20051;-71
2021/05/10 04:33:31;;;;;;;8.40;2.40;;;384.30;1433.60;;;;;;5093492;28;20050;-71
2021/05/10 04:35:58;;;;;;;11.00;2.20;;;384.30;1433.60;;;;;;5093303;28;20036;-71
2021/05/10 04:38:24;;;;;;;7.15;2.15;;;384.30;1433.60;;;;;;5093771;28;20095;-71
2021/05/10 04:40:50;;;;;;;4.95;2.00;;;384.30;1408.00;;;;;;5093410;28;20027;-71
2021/05/10 04:43:16;;;;;;;6.63;2.28;;;384.40;1408.00;;;;;;5093488;28;20111;-71
2021/05/10 04:45:43;;;;;;;6.25;2.10;;;384.50;1408.00;;;;;;5093703;28;20111;-71
2021/05/10 04:48:10;;;;;;;3.97;2.10;;;384.50;1408.00;;;;;;5093647;28;20491;-70
2021/05/10 04:50:35;;;;;;;7.10;2.15;;;384.50;1433.60;;;;;;5093439;28;20039;-71
2021/05/10 04:53:02;;;;;;;4.32;2.10;;;384.50;1433.60;;;;;;5093533;28;20036;-71
2021/05/10 04:55:28;;;;;;;6.13;2.22;;;384.50;1408.00;;;;;;5093445;28;20012;-71
2021/05/10 04:57:54;;;;;;;8.57;2.53;;;384.50;1433.60;;;;;;5092075;28;20387;-71
2021/05/10 05:00:21;;;;;;;7.18;2.60;;;384.60;1408.00;;;;;;5091755;28;20024;-70
2021/05/10 05:02:47;;;;;;;5.65;2.10;;;384.70;1408.00;;;;;;5093337;28;20032;-72
2021/05/10 05:05:14;;;;;;;7.38;2.10;;;384.70;1408.00;;;;;;5093270;28;20023;-71
2021/05/10 05:07:40;;;;;;;4.88;2.20;;;384.70;1408.00;;;;;;5092143;28;20036;-71
2021/05/10 05:10:07;;;;;;;3.22;2.03;;;384.80;1433.60;;;;;;5093278;28;20086;-71
2021/05/10 05:12:33;;;;;;;7.03;2.15;;;384.80;1408.00;;;;;;5092905;28;20051;-70
2021/05/10 05:14:59;;;;;;;7.45;2.00;;;384.90;1408.00;;;;;;5091963;28;20123;-68
2021/05/10 05:17:25;;;;;;;5.18;1.60;;;384.90;1408.00;;;;;;5093164;28;20078;-71
2021/05/10 05:19:51;;;;;;;4.57;1.90;;;384.90;1408.00;;;;;;5093180;28;20028;-71
2021/05/10 05:22:17;;;;;;;6.53;1.70;;;409.60;1433.60;;;;;;5092856;28;20515;-65
2021/05/10 05:24:43;;;;;;;3.95;1.80;;;409.60;1433.60;;;;;;5093099;28;20104;-65
2021/05/10 05:27:09;;;;;;;7.05;2.28;;;409.70;1433.60;;;;;;5092617;28;20484;-65
2021/05/10 05:29:37;;;;;;;7.18;2.20;;;409.70;1433.60;;;;;;5091231;28;20091;-65
2021/05/10 05:32:04;;;;;;;6.30;2.10;;;409.80;1433.60;;;;;;5092466;28;20048;-70
2021/05/10 05:34:29;;;;;;;4.72;1.75;;;409.80;1433.60;;;;;;5089924;28;20082;-71
2021/05/10 05:36:55;;;;;;;3.67;1.60;;;409.90;1433.60;;;;;;5092507;28;20028;-71
2021/05/10 05:39:21;;;;;;;8.43;2.35;;;410.00;1408.00;;;;;;5092537;28;20024;-65
2021/05/10 05:41:47;;;;;;;3.70;1.92;;;410.00;1408.00;;;;;;5092353;28;20016;-71
2021/05/10 05:44:13;;;;;;;4.47;2.30;;;410.00;1433.60;;;;;;5092435;28;20422;-71
2021/05/10 05:46:47;;;;;;;4.82;1.92;;;410.20;1408.00;;;;;;5092463;28;20035;-72
2021/05/10 05:49:13;;;;;;;4.78;1.48;;;410.20;1408.00;;;;;;5093198;28;20064;-70
2021/05/10 05:51:39;;;;;;;6.05;1.70;;;410.30;1408.00;;;;;;5096038;28;20519;-71
2021/05/10 05:54:05;;;;;;;3.50;2.20;;;410.40;1408.00;;;;;;5095782;28;20496;-66
2021/05/10 05:56:31;;;;;;;5.53;1.88;;;410.50;1408.00;;;;;;5095877;28;20036;-66
2021/05/10 05:58:57;;;;;;;4.03;1.88;;;435.20;1382.40;;;;;;5095860;28;20020;-65
2021/05/10 06:01:26;;;;;;;6.55;2.20;;;435.30;1382.40;;;;;;5096197;28;20073;-71
2021/05/10 06:03:56;;;;;;;6.32;2.22;;;435.40;1382.40;;;;;;5096466;28;20020;-72
2021/05/10 06:06:22;;;;;;;6.47;1.85;;;435.40;1356.80;;;;;;5095845;28;20032;-71
2021/05/10 06:08:48;;;;;;;3.75;2.00;;;435.50;1382.40;;;;;;5096075;28;20024;-75
2021/05/10 06:11:14;;;;;;;21.73;2.72;;;435.60;1356.80;;;;;;5095882;28;20079;-72
2021/05/10 06:13:40;;;;;;;7.57;2.00;;;435.60;1356.80;;;;;;5095949;28;20059;-73
2021/05/10 06:16:07;;;;;;;7.78;1.77;;;435.80;1331.20;;;;;;5096539;28;20056;-72
2021/05/10 06:18:33;;;;;;;9.18;2.60;;;435.90;1356.80;;;;;;5095798;28;20376;-71
2021/05/10 06:21:03;;;;;;;4.25;1.70;;;436.00;1356.80;;;;;;5095500;28;20619;-70
2021/05/10 06:23:29;;;;;;;6.60;2.10;;;436.10;1331.20;;;;;;5094972;28;20054;-73
2021/05/10 06:25:55;;;;;;;10.02;2.45;;;460.90;1356.80;;;;;;5094039;28;20480;-74
2021/05/10 06:28:21;;;;;;;5.05;1.90;;;461.00;1356.80;;;;;;5095676;28;20112;-68
2021/05/10 06:30:47;;;;;;;7.35;2.20;;;461.30;1331.20;;;;;;5095598;28;20103;-68
2021/05/10 06:33:13;;;;;;;6.68;2.00;;;461.40;1280.00;;;;;;5094960;28;20356;-68
2021/05/10 06:35:39;;;;;;;6.53;2.33;;;461.50;1280.00;;;;;;5094870;28;20073;-66
2021/05/10 06:38:05;;;;;;;8.23;2.65;;;461.60;1280.00;;;;;;5094969;28;20027;-68
2021/05/10 06:40:31;;;;;;;8.40;2.40;;;486.40;1228.80;;;;;;5095069;28;20020;-66
2021/05/10 06:42:57;;;;;;;6.20;2.40;;;486.50;1228.80;;;;;;5094915;28;20495;-68
2021/05/10 06:45:23;;;;;;;5.90;1.90;;;486.70;1228.80;;;;;;5095350;28;20039;-68
2021/05/10 06:47:50;;;;;;;8.30;2.65;;;486.80;1228.80;;;;;;5094736;28;20051;-67
2021/05/10 06:50:16;;;;;;;7.53;2.30;;;486.90;1203.20;;;;;;5094867;28;20367;-68
2021/05/10 06:52:42;;;;;;;6.53;1.73;;;487.10;1203.20;;;;;;5094803;28;20111;-68
2021/05/10 06:55:09;;;;;;;4.13;2.17;;;487.10;1203.20;;;;;;5094652;28;20047;-67
2021/05/10 06:57:35;;;;;;;8.57;2.47;;;487.20;1177.60;;;;;;5094772;28;20498;-67
2021/05/10 07:00:01;;;;;;;4.45;1.90;;;512.00;1152.00;;;;;;5094165;28;20024;-67
2021/05/10 07:02:27;;;;;;;8.88;2.35;;;512.10;1152.00;;;;;;5093291;28;20032;-67
2021/05/10 07:04:53;;;;;;;11.32;2.42;;;512.30;1126.40;;;;;;5094585;28;20404;-67
2021/05/10 07:07:19;;;;;;;8.05;2.03;;;512.40;1126.40;;;;;;5094672;28;20028;-68
2021/05/10 07:09:46;;;;;;;6.43;1.92;;;512.50;1126.40;;;;;;5093690;28;20024;-67
2021/05/10 07:12:12;;;;;;;6.35;2.10;;;512.50;1100.80;;;;;;5093864;28;20040;-67
2021/05/10 07:14:40;;;;;;;5.05;2.08;;;512.60;1100.80;;;;;;5094523;28;20024;-67
2021/05/10 07:17:07;;;;;;;7.43;2.40;;;512.70;1075.20;;;;;;5094909;28;20020;-67
2021/05/10 07:19:33;;;;;;;5.40;1.90;;;512.80;1075.20;;;;;;5094986;28;20035;-66
2021/05/10 07:21:59;;;;;;;7.43;1.95;;;512.90;1100.80;;;;;;5094666;28;20024;-67
2021/05/10 07:24:25;;;;;;;14.68;2.38;;;512.90;1075.20;;;;;;5094344;28;20036;-68
2021/05/10 07:26:51;;;;;;;9.18;2.13;;;537.60;1075.20;;;;;;5094476;28;20028;-66
2021/05/10 07:29:17;;;;;;;8.57;1.65;;;537.80;1075.20;;;;;;5093306;28;20032;-67
2021/05/10 07:31:42;;;;;;;5.75;1.90;;;537.80;1075.20;;;;;;5093943;28;20358;-68
2021/05/10 07:34:08;;;;;;;4.03;2.05;;;537.80;1100.80;;;;;;5093910;28;20028;-68
2021/05/10 07:36:34;;;;;;;10.30;2.05;;;538.00;1049.60;;;;;;5094276;28;20385;-67
2021/05/10 07:39:00;;;;;;;11.02;2.33;;;538.00;1100.80;;;;;;5094149;28;20074;-66
2021/05/10 07:41:26;;;;;;;16.85;2.47;;;538.00;1100.80;;;;;;5094460;28;20075;-66
2021/05/10 07:43:52;;;;;;;9.15;2.63;;;538.00;1049.60;;;;;;5094614;28;20139;-66
2021/05/10 07:46:18;;;;;;;5.88;1.88;;;538.10;1075.20;;;;;;5094631;28;20381;-66
2021/05/10 07:48:44;;;;;;;15.85;2.72;;;538.10;1075.20;;;;;;5094213;28;20027;-70
2021/05/10 07:51:10;;;;;;;7.38;2.05;;;538.10;1100.80;;;;;;5094459;28;20520;-69
2021/05/10 07:53:36;;;;;;;3.80;1.70;;;538.20;1049.60;;;;;;5093617;28;20123;-77
2021/05/10 07:56:02;;;;;;;6.53;2.20;;;538.20;1100.80;;;;;;5093333;28;20043;-77
2021/05/10 07:58:28;;;;;;;24.65;2.92;;;538.30;1075.20;;;;;;5094220;28;20059;-74
2021/05/10 08:01:01;;;;;;;9.48;2.30;;;538.40;1049.60;;;;;;5093148;28;20027;-68
2021/05/10 08:03:29;;;;;;;4.75;2.05;;;538.50;1100.80;;;;;;5091124;28;20024;-71
2021/05/10 08:05:55;;;;;;;5.72;1.83;;;563.20;1100.80;;;;;;5093548;28;20047;-74
2021/05/10 08:08:25;;;;;;;6.10;2.53;;;563.20;1100.80;;;;;;5093457;28;20047;-71
2021/05/10 08:10:52;;;;;;;12.68;2.30;;;563.20;1024.00;;;;;;5090294;28;20040;-72
2021/05/10 08:13:18;;;;;;;2.85;1.80;;;563.30;1049.60;;;;;;5093260;28;20028;-71
2021/05/10 08:15:45;;;;;;;4.53;2.13;;;563.20;1100.80;;;;;;5093327;28;20099;-75
2021/05/10 08:18:11;;;;;;;6.05;1.77;;;563.30;1024.00;;;;;;5093664;28;20442;-79
2021/05/10 08:20:38;;;;;;;5.20;1.95;;;563.30;1049.60;;;;;;5093320;28;20050;-74
2021/05/10 08:23:04;;;;;;;5.97;2.35;;;563.40;1100.80;;;;;;5093247;28;20036;-76
2021/05/10 08:25:30;;;;;;;11.13;2.20;;;563.40;1100.80;;;;;;5091981;28;20024;-71
2021/05/10 08:27:56;;;;;;;13.40;2.22;;;563.30;1126.40;;;;;;5093574;28;20103;-68
2021/05/10 08:30:23;;;;;;;5.63;2.15;;;563.30;1100.80;;;;;;5093214;28;20042;-71
2021/05/10 08:32:49;;;;;;;10.25;2.28;;;563.30;1126.40;;;;;;5090825;28;20071;-74
2021/05/10 08:35:15;;;;;;;11.68;2.10;;;563.30;1100.80;;;;;;5093790;28;20444;-74
2021/05/10 08:37:41;;;;;;;4.20;1.88;;;563.40;1100.80;;;;;;5093517;28;20020;-74
2021/05/10 08:40:07;;;;;;;7.47;2.20;;;563.40;1126.40;;;;;;5092238;28;20024;-74
2021/05/10 08:42:33;;;;;;;5.95;2.22;;;563.40;1100.80;;;;;;5093368;28;20078;-67
2021/05/10 08:45:00;;;;;;;6.75;2.38;;;563.50;1100.80;;;;;;5093486;28;20024;-73
2021/05/10 08:47:32;;;;;;;7.05;2.25;;;563.50;1100.80;;;;;;5093527;28;20055;-73
2021/05/10 08:49:59;;;;;;;5.68;2.17;;;563.60;1100.80;;;;;;5094026;28;20016;-74
2021/05/10 08:52:25;;;;;;;6.95;2.50;;;563.70;1049.60;;;;;;5093355;28;20063;-74
2021/05/10 08:54:51;;;;;;;8.95;2.17;;;563.70;1100.80;;;;;;5093465;28;20020;-68
2021/05/10 08:57:17;;;;;;;5.93;1.90;;;563.70;1100.80;;;;;;5092398;28;20016;-76
2021/05/10 08:59:43;;;;;;;4.38;2.10;;;563.80;1024.00;;;;;;5093186;28;20376;-76
2021/05/10 09:02:10;;;;;;;16.50;2.60;;;563.80;1075.20;;;;;;5093077;28;20058;-73
2021/05/10 09:04:42;;;;;;;6.55;2.30;;;564.10;1075.20;;;;;;5093364;28;20028;-76
2021/05/10 09:07:19;;;;;;;14.35;2.80;;;564.10;998.40;;;;;;5092636;28;20024;-68
2021/05/10 09:10:05;;;;;;;6.00;2.28;;;564.00;1049.60;;;;;;5093089;28;20392;-72
2021/05/10 09:12:47;;;;;;;11.57;2.58;;;564.10;1075.20;;;;;;5088539;28;20032;-71
2021/05/10 09:15:30;;;;;;;8.88;2.10;;;564.10;1075.20;;;;;;5091855;28;20357;-69
2021/05/10 09:17:59;;;;;;;9.97;2.13;;;564.00;1049.60;;;;;;5092092;28;20016;-72
2021/05/10 09:20:34;;;;;;;6.25;2.03;;;564.00;1075.20;;;;;;5090302;28;20327;-72
2021/05/10 09:23:03;;;;;;;4.63;2.00;;;564.10;1075.20;;;;;;5095719;28;20028;-70
2021/05/10 09:25:34;;;;;;;7.95;2.13;;;564.10;1049.60;;;;;;5096702;28;20024;-73
2021/05/10 09:28:14;;;;;;;12.07;2.25;;;588.80;1049.60;;;;;;5096444;28;20071;-73
2021/05/10 09:30:43;;;;;;;8.50;2.20;;;588.80;1049.60;;;;;;5096272;28;20028;-68
2021/05/10 09:33:23;;;;;;;6.07;2.00;;;588.80;972.80;;;;;;5096575;28;20396;-72
2021/05/10 09:35:54;;;;;;;7.65;2.20;;;588.80;1075.20;;;;;;5096820;28;20532;-69
2021/05/10 09:38:22;;;;;;;6.32;2.20;;;588.90;1049.60;;;;;;5096542;28;20028;-70
2021/05/10 09:40:53;;;;;;;5.35;1.85;;;588.90;1049.60;;;;;;5096618;28;20424;-71
2021/05/10 09:43:29;;;;;;;6.30;2.30;;;588.80;998.40;;;;;;5096623;28;20077;-70
2021/05/10 09:45:57;;;;;;;4.28;2.28;;;588.80;1024.00;;;;;;5094152;28;20119;-72
2021/05/10 09:48:33;;;;;;;5.72;1.98;;;588.90;1024.00;;;;;;5096123;28;20093;-68
2021/05/10 09:51:01;;;;;;;5.05;2.10;;;588.80;1024.00;;;;;;5092630;28;20020;-72
2021/05/10 09:53:45;;;;;;;4.32;2.33;;;588.80;1049.60;;;;;;5095714;28;20032;-72
2021/05/10 09:56:40;;;;;;;3.88;2.08;;;588.90;998.40;;;;;;5096688;28;20059;-71
2021/05/10 09:59:14;;;;;;;6.90;2.35;;;589.00;998.40;;;;;;5095413;28;20035;-72
2021/05/10 10:01:45;;;;;;;6.03;2.10;;;589.00;998.40;;;;;;5096879;28;20054;-72
2021/05/10 10:04:12;;;;;;;7.47;2.25;;;589.10;947.20;;;;;;5096181;28;20465;-73
2021/05/10 10:06:38;;;;;;;5.88;1.77;;;589.10;998.40;;;;;;5096305;28;20082;-66
2021/05/10 10:09:05;;;;;;;13.98;3.30;;;589.30;947.20;;;;;;5096474;28;20484;-67
2021/05/10 10:11:31;;;;;;;5.78;2.28;;;589.40;972.80;;;;;;5095626;28;20048;-67
2021/05/10 10:13:58;;;;;;;9.10;2.40;;;589.50;998.40;;;;;;5096114;28;20035;-73
2021/05/10 10:16:29;;;;;;;6.13;2.10;;;589.60;1049.60;;;;;;5095986;28;20017;-67
2021/05/10 10:18:59;;;;;;;10.02;2.20;;;614.50;1024.00;;;;;;5094808;28;20030;-67
2021/05/10 10:21:26;;;;;;;10.55;2.50;;;614.40;1049.60;;;;;;5094705;28;20592;-67
2021/05/10 10:24:01;;;;;;;5.30;1.70;;;614.40;947.20;;;;;;5096203;28;20028;-73
2021/05/10 10:26:28;;;;;;;3.75;1.75;;;614.40;972.80;;;;;;5095909;28;20024;-67
2021/05/10 10:28:54;;;;;;;7.32;2.00;;;614.40;972.80;;;;;;5096168;28;20020;-66
2021/05/10 10:31:25;;;;;;;6.40;2.08;;;614.40;972.80;;;;;;5095804;28;20035;-67
2021/05/10 10:34:02;;;;;;;5.00;2.00;;;589.70;921.60;;;;;;5094823;28;20122;-67
2021/05/10 10:36:31;;;;;;;6.18;1.88;;;589.70;921.60;;;;;;5096040;28;20464;-66
2021/05/10 10:39:13;;;;;;;4.45;2.28;;;614.50;870.40;;;;;;5095644;28;20020;-67
2021/05/10 10:42:25;;;;;;;4.25;2.20;;;614.50;896.00;;;;;;5095533;28;20469;-67
2021/05/10 10:44:57;;;;;;;4.65;2.03;;;614.40;972.80;;;;;;5033184;28;20025;-72
2021/05/10 10:48:04;;;;;;;5.25;1.92;;;614.40;921.60;;;;;;5033234;28;20025;-73
2021/05/10 10:50:30;;;;;;;10.27;2.78;;;614.60;921.60;;;;;;5031463;28;20041;-67
2021/05/10 10:53:02;;;;;;;4.60;2.15;;;614.60;896.00;;;;;;5032332;28;20029;-73
2021/05/10 10:55:37;;;;;;;6.53;2.92;;;614.70;896.00;;;;;;5032489;28;20147;-72
2021/05/10 10:58:17;;;;;;;7.07;2.50;;;614.70;947.20;;;;;;5017091;28;20444;-66
2021/05/10 11:01:21;;;;;;;4.68;2.00;;;614.70;998.40;;;;;;5033240;28;20423;-67
2021/05/10 11:03:48;;;;;;;6.43;2.03;;;614.80;972.80;;;;;;5032676;28;20030;-67
2021/05/10 11:06:14;;;;;;;6.57;2.17;;;614.70;921.60;;;;;;5032428;28;20108;-72
2021/05/10 11:08:44;;;;;;;6.38;2.25;;;614.80;896.00;;;;;;5032724;28;20038;-71
2021/05/10 11:11:12;;;;;;;5.57;2.03;;;614.90;921.60;;;;;;5032475;28;20132;-66
2021/05/10 11:13:42;;;;;;;6.03;2.10;;;614.90;921.60;;;;;;5032843;28;20132;-67
2021/05/10 11:16:11;;;;;;;5.55;2.40;;;615.00;870.40;;;;;;5081281;28;20032;-68
2021/05/10 11:18:49;;;;;;;7.57;2.22;;;615.10;844.80;;;;;;5094885;28;20123;-73
2021/05/10 11:21:24;;;;;;;6.07;2.28;;;614.90;921.60;;;;;;5094774;28;20016;-73
2021/05/10 11:23:54;;;;;;;11.25;2.58;;;614.80;896.00;;;;;;5092949;28;20082;-74
2021/05/10 11:26:37;;;;;;;7.00;2.53;;;614.80;896.00;;;;;;5094106;28;20019;-68
2021/05/10 11:29:05;;;;;;;5.63;2.15;;;614.80;844.80;;;;;;5093268;28;20039;-72
2021/05/10 11:31:35;;;;;;;3.67;1.92;;;614.90;870.40;;;;;;5091839;28;20028;-74
2021/05/10 11:34:03;;;;;;;4.82;2.25;;;614.90;844.80;;;;;;5091591;28;20109;-71
2021/05/10 11:36:34;;;;;;;6.80;2.53;;;614.90;819.20;;;;;;5094569;28;20372;-72
2021/05/10 11:39:10;;;;;;;5.22;1.88;;;615.00;870.40;;;;;;5093880;28;20062;-67
2021/05/10 11:41:39;;;;;;;8.77;2.00;;;615.10;870.40;;;;;;5093949;28;20073;-72
2021/05/10 11:44:08;;;;;;;9.55;2.50;;;615.10;896.00;;;;;;5091629;28;20099;-67
2021/05/10 11:46:35;;;;;;;7.45;2.72;;;615.20;870.40;;;;;;5094224;28;20069;-73
2021/05/10 11:49:02;;;;;;;6.80;2.38;;;615.30;870.40;;;;;;5094339;28;20106;-67
2021/05/10 11:51:29;;;;;;;6.78;2.40;;;615.30;870.40;;;;;;5094183;28;20358;-73
2021/05/10 11:54:02;;;;;;;6.07;2.10;;;615.20;896.00;;;;;;5094175;28;20055;-72
2021/05/10 11:56:29;;;;;;;6.05;2.10;;;615.30;921.60;;;;;;5094583;28;20140;-72
2021/05/10 11:59:22;;;;;;;8.60;2.55;;;615.30;819.20;;;;;;5093859;28;20032;-73
2021/05/10 12:01:45;;;;;;;7.20;2.10;;;615.30;870.40;;;;;;5093162;28;20024;-70
2021/05/10 12:04:22;;;;;;;6.63;2.20;;;640.00;896.00;;;;;;5091993;28;20107;-72
2021/05/10 12:06:48;;;;;;;4.70;2.50;;;640.00;921.60;;;;;;5092307;28;20012;-71
2021/05/10 12:09:40;;;;;;;7.07;1.98;;;640.20;947.20;;;;;;5091766;28;20056;-68
2021/05/10 12:12:19;;;;;;;7.80;2.65;;;640.20;896.00;;;;;;5091801;28;20070;-67
2021/05/10 12:14:52;;;;;;;8.30;1.90;;;640.30;870.40;;;;;;5091071;28;20047;-73
2021/05/10 12:17:32;;;;;;;3.70;1.90;;;640.50;819.20;;;;;;5093068;28;20467;-73
2021/05/10 12:20:00;;;;;;;5.07;2.20;;;640.50;870.40;;;;;;5094054;28;20024;-73
2021/05/10 12:22:35;;;;;;;5.80;2.40;;;640.50;793.60;;;;;;5093755;28;20030;-73
2021/05/10 12:25:09;;;;;;;5.55;2.00;;;640.50;819.20;;;;;;5094076;28;20027;-68
2021/05/10 12:27:45;;;;;;;6.05;1.95;;;640.50;819.20;;;;;;5093843;28;20099;-72
2021/05/10 12:30:13;;;;;;;5.30;2.00;;;640.50;793.60;;;;;;5093727;28;20085;-73
2021/05/10 12:32:40;;;;;;;6.45;2.28;;;640.70;793.60;;;;;;5092896;28;20024;-67
2021/05/10 12:35:07;;;;;;;3.75;2.17;;;640.70;844.80;;;;;;5093315;28;20028;-73
2021/05/10 12:37:40;;;;;;;8.25;2.63;;;640.70;768.00;;;;;;5093132;28;20020;-70